Details From EBLG - Liege
To EBCI - Brussels South - Charleroi
Flight Number -
Tags Standard
Created
Modified
Stats Distance 42 nm / 78 km
Max Altitude 6,000 ft / 1,829 m
Waypoints 6
Social Downloads 23
Likes 0
Share

Download

Looking for another format? Having issues loading an existing format? Contact us
Advertisement - Login to hide

Notes

CAX Pilots : both airports have nice scenery...!

Route

EBLG REMBA +50.51_+004.65 ONC CC EBCI

ID Type Via Altitude (ft/m) Position (lat/lon) Dist (leg/tot) Name
O EBLG APT - 645 / 197 50.63754 / 5.44444 - / 0 nm Liege
REMBA FIX - 6,000 / 1,829 50.66222 / 4.91403 20 / 20 nm
+50.51_+004.65 DME - 3,000 / 914 50.51036 / 4.65102 13 / 33 nm
ONC NDB - 1,786 / 544 50.48945 / 4.55528 3 / 37 nm CHARLEROI NDB
CC NDB - 840 / 256 50.46889 / 4.48472 2 / 40 nm CHARLEROI LCTR NDB
O EBCI APT - 614 / 187 50.46006 / 4.45303 1 / 41 nm Brussels South - Charleroi

Altitude Profile

Advertisement - Login to hide

EBLG

Details ICAO EBLG (LGG)
Name Liege
Region Belgium
Timezone Europe/Brussels (UTC+2.0)
Stats Elevation 645 ft / 197 m (AMSL)
Location 50.636400° 5.442780°
Runways 2
Magnetic Variation 1.786° E

METAR

EBLG 072120Z 04004KT CAVOK 26/10 Q1019 NOSIG

Decode

TAF

TAF EBLG 071720Z 0718/0824 06005KT CAVOK

Decode

Departure Runways

ID Width Length Bearing (true/mag) Surface Threshold Overrun Markings Lighting
05L 148 ft / 45 m 7,664 ft / 2,336 m 45.15° / 43.36° ASPHALT 0 ft / 0 m 0 ft / 0 m PREC-APP EDGE THRESHOLD REIL-OMNI
05R 148 ft / 45 m 9,996 ft / 3,047 m 45.15° / 43.37° ASPHALT 118 ft / 36 m 978 ft / 298 m PREC-APP CENTERLINE EDGE THRESHOLD ALSF-I REIL-OMNI
23L 148 ft / 45 m 9,996 ft / 3,047 m 225.18° / 223.39° ASPHALT 0 ft / 0 m 1,355 ft / 413 m PREC-APP CENTERLINE EDGE THRESHOLD ALSF-II TDZ REIL-OMNI
23R 148 ft / 45 m 7,664 ft / 2,336 m 225.16° / 223.38° ASPHALT 0 ft / 0 m 0 ft / 0 m PREC-APP EDGE THRESHOLD ALSF-I REIL-OMNI

EBCI

Details ICAO EBCI (CRL)
Name Brussels South - Charleroi
Region Belgium
Timezone Europe/Brussels (UTC+2.0)
Stats Elevation 612 ft / 187 m (AMSL)
Location 50.459900° 4.453110°
Runways 1
Magnetic Variation 1.494° E

METAR

EBCI 072120Z 07004KT CAVOK 26/12 Q1019 NOSIG

Decode

TAF

TAF EBCI 071720Z 0718/0824 05005KT CAVOK

Decode

Destination Runways

ID Width Length Bearing (true/mag) Surface Threshold Overrun Markings Lighting
07 148 ft / 45 m 8,347 ft / 2,544 m 65.45° / 63.96° ASPHALT 1,470 ft / 448 m 0 ft / 0 m PREC-APP CENTERLINE EDGE THRESHOLD MALS TDZ REIL-UNI
25 148 ft / 45 m 8,347 ft / 2,544 m 245.48° / 243.98° ASPHALT 0 ft / 0 m 0 ft / 0 m UK-PREC-APP CENTERLINE EDGE THRESHOLD ALSF-I REIL-OMNI

Approach Navaids

Runway Type Ident Frequency Range Bearing (true/mag) Slope Elevation
25 LOC-ILS IGC 110.90 MHz 18 nm / 33 km 245.54° / 244.05 ° - 614 ft / 187 m (AMSL)
25 MM MM - - 245.54° / 244.05 ° - 614 ft / 187 m (AMSL)
25 GS IGC 110.90 MHz 10 nm / 19 km 246.08° / 244.59 ° 3.00° 614 ft / 187 m (AMSL)
25 OM OM - - 245.54° / 244.05 ° - 614 ft / 187 m (AMSL)

Popular Alternatives